sensor_id;sensor_type;location;lat;lon;timestamp;pressure;altitude;pressure_sealevel;temperature;humidity
57068;BME280;43391;47.448;18.904;2024-02-28T00:01:24;99636.91;;;8.23;100.00
57068;BME280;43391;47.448;18.904;2024-02-28T00:03:50;99649.13;;;8.19;100.00
57068;BME280;43391;47.448;18.904;2024-02-28T00:06:18;99643.88;;;8.21;100.00
57068;BME280;43391;47.448;18.904;2024-02-28T00:08:43;99649.13;;;8.19;100.00
57068;BME280;43391;47.448;18.904;2024-02-28T00:11:09;99649.22;;;8.16;100.00
57068;BME280;43391;47.448;18.904;2024-02-28T00:13:34;99643.28;;;8.14;100.00
57068;BME280;43391;47.448;18.904;2024-02-28T00:15:59;99648.31;;;8.17;100.00
57068;BME280;43391;47.448;18.904;2024-02-28T00:18:24;99652.69;;;8.17;100.00
57068;BME280;43391;47.448;18.904;2024-02-28T00:20:50;99647.50;;;8.17;100.00
57068;BME280;43391;47.448;18.904;2024-02-28T00:23:15;99644.72;;;8.21;100.00
57068;BME280;43391;47.448;18.904;2024-02-28T00:25:40;99642.13;;;8.21;100.00
57068;BME280;43391;47.448;18.904;2024-02-28T00:28:05;99642.13;;;8.21;100.00
57068;BME280;43391;47.448;18.904;2024-02-28T00:30:30;99644.13;;;8.15;100.00
57068;BME280;43391;47.448;18.904;2024-02-28T00:32:57;99644.97;;;8.15;100.00
57068;BME280;43391;47.448;18.904;2024-02-28T00:35:22;99636.41;;;8.13;100.00
57068;BME280;43391;47.448;18.904;2024-02-28T00:37:48;99633.97;;;8.10;100.00
57068;BME280;43391;47.448;18.904;2024-02-28T00:40:13;99637.31;;;8.12;100.00
57068;BME280;43391;47.448;18.904;2024-02-28T00:42:38;99638.22;;;8.11;100.00
57068;BME280;43391;47.448;18.904;2024-02-28T00:45:03;99639.81;;;8.15;100.00
57068;BME280;43391;47.448;18.904;2024-02-28T00:47:29;99639.09;;;8.11;100.00
57068;BME280;43391;47.448;18.904;2024-02-28T00:49:54;99638.03;;;8.16;100.00
57068;BME280;43391;47.448;18.904;2024-02-28T00:52:19;99638.28;;;8.09;100.00
57068;BME280;43391;47.448;18.904;2024-02-28T00:54:44;99638.22;;;8.11;100.00
57068;BME280;43391;47.448;18.904;2024-02-28T00:57:10;99641.69;;;8.11;100.00
57068;BME280;43391;47.448;18.904;2024-02-28T00:59:35;99646.94;;;8.08;100.00
57068;BME280;43391;47.448;18.904;2024-02-28T01:02:00;99647.81;;;8.09;100.00
57068;BME280;43391;47.448;18.904;2024-02-28T01:04:25;99652.06;;;8.10;100.00
57068;BME280;43391;47.448;18.904;2024-02-28T01:06:50;99652.88;;;8.10;100.00
57068;BME280;43391;47.448;18.904;2024-02-28T01:09:16;99650.38;;;8.09;100.00
57068;BME280;43391;47.448;18.904;2024-02-28T01:11:41;99647.84;;;8.07;100.00
57068;BME280;43391;47.448;18.904;2024-02-28T01:14:06;99650.38;;;8.09;100.00
57068;BME280;43391;47.448;18.904;2024-02-28T01:16:31;99645.03;;;8.14;100.00
57068;BME280;43391;47.448;18.904;2024-02-28T01:18:56;99644.97;;;8.15;100.00
57068;BME280;43391;47.448;18.904;2024-02-28T01:21:22;99644.25;;;8.11;100.00
57068;BME280;43391;47.448;18.904;2024-02-28T01:23:47;99652.78;;;8.14;100.00
57068;BME280;43391;47.448;18.904;2024-02-28T01:26:12;99637.63;;;8.04;100.00
57068;BME280;43391;47.448;18.904;2024-02-28T01:28:37;99648.03;;;8.03;100.00
57068;BME280;43391;47.448;18.904;2024-02-28T01:31:03;99640.34;;;8.01;100.00
57068;BME280;43391;47.448;18.904;2024-02-28T01:33:28;99645.63;;;7.98;100.00
57068;BME280;43391;47.448;18.904;2024-02-28T01:35:53;99643.91;;;7.98;100.00
57068;BME280;43391;47.448;18.904;2024-02-28T01:38:18;99644.00;;;7.95;100.00
57068;BME280;43391;47.448;18.904;2024-02-28T01:40:47;99647.66;;;7.90;100.00
57068;BME280;43391;47.448;18.904;2024-02-28T01:43:12;99651.09;;;7.90;100.00
57068;BME280;43391;47.448;18.904;2024-02-28T01:45:38;99641.53;;;7.92;100.00
57068;BME280;43391;47.448;18.904;2024-02-28T01:48:03;99649.94;;;7.97;100.00
57068;BME280;43391;47.448;18.904;2024-02-28T01:50:30;99650.84;;;7.96;100.00
57068;BME280;43391;47.448;18.904;2024-02-28T01:52:55;99661.84;;;8.02;100.00
57068;BME280;43391;47.448;18.904;2024-02-28T01:55:21;99656.88;;;7.97;100.00
57068;BME280;43391;47.448;18.904;2024-02-28T01:57:46;99654.53;;;7.91;100.00
57068;BME280;43391;47.448;18.904;2024-02-28T02:00:11;99654.59;;;7.89;100.00
57068;BME280;43391;47.448;18.904;2024-02-28T02:02:37;99659.03;;;7.86;100.00
57068;BME280;43391;47.448;18.904;2024-02-28T02:05:02;99657.28;;;7.86;100.00
57068;BME280;43391;47.448;18.904;2024-02-28T02:07:28;99657.41;;;7.83;100.00
57068;BME280;43391;47.448;18.904;2024-02-28T02:09:53;99657.47;;;7.81;100.00
57068;BME280;43391;47.448;18.904;2024-02-28T02:12:19;99661.00;;;7.79;100.00
57068;BME280;43391;47.448;18.904;2024-02-28T02:14:50;99661.81;;;7.79;100.00
57068;BME280;43391;47.448;18.904;2024-02-28T02:17:15;99666.91;;;7.82;100.00
57068;BME280;43391;47.448;18.904;2024-02-28T02:19:41;99667.00;;;7.79;100.00
57068;BME280;43391;47.448;18.904;2024-02-28T02:22:08;99669.66;;;7.78;100.00
57068;BME280;43391;47.448;18.904;2024-02-28T02:24:33;99667.13;;;7.76;100.00
57068;BME280;43391;47.448;18.904;2024-02-28T02:26:58;99667.00;;;7.79;100.00
57068;BME280;43391;47.448;18.904;2024-02-28T02:29:24;99670.25;;;7.84;100.00
57068;BME280;43391;47.448;18.904;2024-02-28T02:31:49;99665.03;;;7.86;100.00
57068;BME280;43391;47.448;18.904;2024-02-28T02:34:14;99668.28;;;7.91;100.00
57068;BME280;43391;47.448;18.904;2024-02-28T02:36:39;99675.94;;;7.94;100.00
57068;BME280;43391;47.448;18.904;2024-02-28T02:39:04;99674.41;;;7.89;100.00
57068;BME280;43391;47.448;18.904;2024-02-28T02:41:31;99677.03;;;7.87;100.00
57068;BME280;43391;47.448;18.904;2024-02-28T02:43:56;99670.25;;;7.84;100.00
57068;BME280;43391;47.448;18.904;2024-02-28T02:46:23;99676.31;;;7.83;100.00
57068;BME280;43391;47.448;18.904;2024-02-28T02:48:48;99678.91;;;7.83;100.00
57068;BME280;43391;47.448;18.904;2024-02-28T02:51:13;99671.06;;;7.87;100.00
57068;BME280;43391;47.448;18.904;2024-02-28T02:53:38;99676.09;;;7.90;100.00
57068;BME280;43391;47.448;18.904;2024-02-28T02:56:03;99682.00;;;7.93;100.00
57068;BME280;43391;47.448;18.904;2024-02-28T02:58:29;99683.69;;;7.94;100.00
57068;BME280;43391;47.448;18.904;2024-02-28T03:00:54;99681.03;;;7.96;100.00
57068;BME280;43391;47.448;18.904;2024-02-28T03:03:19;99686.63;;;8.07;100.00
57068;BME280;43391;47.448;18.904;2024-02-28T03:05:44;99687.41;;;8.09;100.00
57068;BME280;43391;47.448;18.904;2024-02-28T03:08:09;99693.38;;;8.11;100.00
57068;BME280;43391;47.448;18.904;2024-02-28T03:10:35;99689.84;;;8.14;100.00
57068;BME280;43391;47.448;18.904;2024-02-28T03:13:00;99699.94;;;8.20;100.00
57068;BME280;43391;47.448;18.904;2024-02-28T03:15:26;99695.44;;;8.26;100.00
57068;BME280;43391;47.448;18.904;2024-02-28T03:17:51;99701.31;;;8.29;100.00
57068;BME280;43391;47.448;18.904;2024-02-28T03:20:17;99704.66;;;8.31;100.00
57068;BME280;43391;47.448;18.904;2024-02-28T03:22:42;99706.25;;;8.35;100.00
57068;BME280;43391;47.448;18.904;2024-02-28T03:25:08;99707.09;;;8.36;100.00
57068;BME280;43391;47.448;18.904;2024-02-28T03:27:33;99711.22;;;8.40;100.00
57068;BME280;43391;47.448;18.904;2024-02-28T03:29:58;99701.72;;;8.41;100.00
57068;BME280;43391;47.448;18.904;2024-02-28T03:32:24;99706.03;;;8.40;100.00
57068;BME280;43391;47.448;18.904;2024-02-28T03:34:49;99705.16;;;8.41;100.00
57068;BME280;43391;47.448;18.904;2024-02-28T03:37:14;99705.81;;;8.46;100.00
57068;BME280;43391;47.448;18.904;2024-02-28T03:39:39;99712.00;;;8.42;100.00
57068;BME280;43391;47.448;18.904;2024-02-28T03:42:05;99706.00;;;8.42;100.00
57068;BME280;43391;47.448;18.904;2024-02-28T03:44:30;99712.69;;;8.47;100.00
57068;BME280;43391;47.448;18.904;2024-02-28T03:46:55;99710.09;;;8.47;100.00
57068;BME280;43391;47.448;18.904;2024-02-28T03:49:20;99712.63;;;8.49;100.00
57068;BME280;43391;47.448;18.904;2024-02-28T03:51:45;99715.31;;;8.46;100.00
57068;BME280;43391;47.448;18.904;2024-02-28T03:54:11;99717.13;;;8.44;100.00
57068;BME280;43391;47.448;18.904;2024-02-28T03:56:36;99715.56;;;8.40;100.00
57068;BME280;43391;47.448;18.904;2024-02-28T03:59:01;99718.09;;;8.41;100.00
57068;BME280;43391;47.448;18.904;2024-02-28T04:01:26;99726.69;;;8.42;100.00
57068;BME280;43391;47.448;18.904;2024-02-28T04:03:52;99725.88;;;8.41;100.00
57068;BME280;43391;47.448;18.904;2024-02-28T04:06:17;99718.09;;;8.41;100.00
57068;BME280;43391;47.448;18.904;2024-02-28T04:08:42;99722.31;;;8.44;100.00
57068;BME280;43391;47.448;18.904;2024-02-28T04:11:07;99719.59;;;8.47;100.00
57068;BME280;43391;47.448;18.904;2024-02-28T04:13:32;99725.72;;;8.44;100.00
57068;BME280;43391;47.448;18.904;2024-02-28T04:15:58;99724.03;;;8.43;100.00
57068;BME280;43391;47.448;18.904;2024-02-28T04:18:23;99722.16;;;8.47;100.00
57068;BME280;43391;47.448;18.904;2024-02-28T04:20:48;99729.94;;;8.47;100.00
57068;BME280;43391;47.448;18.904;2024-02-28T04:23:13;99733.47;;;8.44;100.00
57068;BME280;43391;47.448;18.904;2024-02-28T04:25:38;99735.91;;;8.49;100.00
57068;BME280;43391;47.448;18.904;2024-02-28T04:28:05;99737.59;;;8.50;100.00
57068;BME280;43391;47.448;18.904;2024-02-28T04:30:31;99724.66;;;8.50;100.00
57068;BME280;43391;47.448;18.904;2024-02-28T04:32:56;99729.78;;;8.51;100.00
57068;BME280;43391;47.448;18.904;2024-02-28T04:35:21;99731.47;;;8.53;100.00
57068;BME280;43391;47.448;18.904;2024-02-28T04:37:46;99729.03;;;8.48;100.00
57068;BME280;43391;47.448;18.904;2024-02-28T04:40:12;99728.06;;;8.50;100.00
57068;BME280;43391;47.448;18.904;2024-02-28T04:42:37;99736.66;;;8.53;100.00
57068;BME280;43391;47.448;18.904;2024-02-28T04:45:03;99739.25;;;8.51;100.00
57068;BME280;43391;47.448;18.904;2024-02-28T04:47:28;99742.81;;;8.48;100.00
57068;BME280;43391;47.448;18.904;2024-02-28T04:49:54;99731.69;;;8.46;100.00
57068;BME280;43391;47.448;18.904;2024-02-28T04:52:19;99728.31;;;8.44;100.00
57068;BME280;43391;47.448;18.904;2024-02-28T04:54:45;99730.63;;;8.52;100.00
57068;BME280;43391;47.448;18.904;2024-02-28T04:57:10;99728.88;;;8.53;100.00
57068;BME280;43391;47.448;18.904;2024-02-28T04:59:35;99736.47;;;8.57;100.00
57068;BME280;43391;47.448;18.904;2024-02-28T05:02:00;99743.31;;;8.58;100.00
57068;BME280;43391;47.448;18.904;2024-02-28T05:04:25;99740.88;;;8.55;100.00
57068;BME280;43391;47.448;18.904;2024-02-28T05:06:51;99748.84;;;8.49;100.00
57068;BME280;43391;47.448;18.904;2024-02-28T05:09:16;99753.91;;;8.52;100.00
57068;BME280;43391;47.448;18.904;2024-02-28T05:11:42;99757.28;;;8.54;100.00
57068;BME280;43391;47.448;18.904;2024-02-28T05:14:09;99764.25;;;8.52;100.00
57068;BME280;43391;47.448;18.904;2024-02-28T05:16:35;99765.81;;;8.56;100.00
57068;BME280;43391;47.448;18.904;2024-02-28T05:19:00;99761.78;;;8.49;100.00
57068;BME280;43391;47.448;18.904;2024-02-28T05:21:25;99758.44;;;8.45;100.00
57068;BME280;43391;47.448;18.904;2024-02-28T05:23:50;99764.53;;;8.44;100.00
57068;BME280;43391;47.448;18.904;2024-02-28T05:26:16;99771.28;;;8.48;100.00
57068;BME280;43391;47.448;18.904;2024-02-28T05:28:41;99763.69;;;8.44;100.00
57068;BME280;43391;47.448;18.904;2024-02-28T05:33:46;99769.75;;;8.43;100.00
57068;BME280;43391;47.448;18.904;2024-02-28T05:36:11;99770.56;;;8.45;100.00
57068;BME280;43391;47.448;18.904;2024-02-28T05:38:37;99772.94;;;8.49;100.00
57068;BME280;43391;47.448;18.904;2024-02-28T05:41:02;99776.50;;;8.47;100.00
57068;BME280;43391;47.448;18.904;2024-02-28T05:43:27;99775.78;;;8.43;100.00
57068;BME280;43391;47.448;18.904;2024-02-28T05:45:52;99781.81;;;8.44;100.00
57068;BME280;43391;47.448;18.904;2024-02-28T05:48:18;99782.69;;;8.43;100.00
57068;BME280;43391;47.448;18.904;2024-02-28T05:50:43;99776.75;;;8.41;100.00
57068;BME280;43391;47.448;18.904;2024-02-28T05:53:08;99779.53;;;8.36;100.00
57068;BME280;43391;47.448;18.904;2024-02-28T05:55:34;99783.59;;;8.42;100.00
57068;BME280;43391;47.448;18.904;2024-02-28T05:57:59;99781.00;;;8.42;100.00
57068;BME280;43391;47.448;18.904;2024-02-28T06:00:24;99782.69;;;8.43;100.00
57068;BME280;43391;47.448;18.904;2024-02-28T06:02:49;99776.75;;;8.41;100.00
57068;BME280;43391;47.448;18.904;2024-02-28T06:05:14;99787.19;;;8.37;100.00
57068;BME280;43391;47.448;18.904;2024-02-28T06:07:40;99793.22;;;8.38;100.00
57068;BME280;43391;47.448;18.904;2024-02-28T06:10:05;99794.78;;;8.42;100.00
57068;BME280;43391;47.448;18.904;2024-02-28T06:12:30;99783.66;;;8.40;100.00
57068;BME280;43391;47.448;18.904;2024-02-28T06:14:56;99796.53;;;8.42;100.00
57068;BME280;43391;47.448;18.904;2024-02-28T06:17:21;99799.91;;;8.44;100.00
57068;BME280;43391;47.448;18.904;2024-02-28T06:19:47;99800.75;;;8.44;100.00
57068;BME280;43391;47.448;18.904;2024-02-28T06:22:12;99805.88;;;8.46;100.00
57068;BME280;43391;47.448;18.904;2024-02-28T06:24:38;99798.06;;;8.47;100.00
57068;BME280;43391;47.448;18.904;2024-02-28T06:27:04;99795.41;;;8.49;100.00
57068;BME280;43391;47.448;18.904;2024-02-28T06:29:30;99791.91;;;8.50;100.00
57068;BME280;43391;47.448;18.904;2024-02-28T06:31:55;99797.03;;;8.51;100.00
57068;BME280;43391;47.448;18.904;2024-02-28T06:34:20;99794.34;;;8.55;100.00
57068;BME280;43391;47.448;18.904;2024-02-28T06:36:47;99800.38;;;8.55;100.00
57068;BME280;43391;47.448;18.904;2024-02-28T06:39:12;99803.72;;;8.57;100.00
57068;BME280;43391;47.448;18.904;2024-02-28T06:41:38;99805.41;;;8.58;100.00
57068;BME280;43391;47.448;18.904;2024-02-28T06:44:03;99806.22;;;8.60;100.00
57068;BME280;43391;47.448;18.904;2024-02-28T06:46:28;99809.56;;;8.62;100.00
57068;BME280;43391;47.448;18.904;2024-02-28T06:48:53;99809.41;;;8.67;100.00
57068;BME280;43391;47.448;18.904;2024-02-28T06:51:19;99811.75;;;8.73;100.00
57068;BME280;43391;47.448;18.904;2024-02-28T06:53:44;99819.31;;;8.78;100.00
57068;BME280;43391;47.448;18.904;2024-02-28T06:56:09;99814.84;;;8.82;100.00
57068;BME280;43391;47.448;18.904;2024-02-28T06:58:34;99827.38;;;8.93;100.00
57068;BME280;43391;47.448;18.904;2024-02-28T07:01:00;99836.72;;;8.97;100.00
57068;BME280;43391;47.448;18.904;2024-02-28T07:03:25;99838.28;;;9.01;100.00
57068;BME280;43391;47.448;18.904;2024-02-28T07:05:50;99842.25;;;9.10;100.00
57068;BME280;43391;47.448;18.904;2024-02-28T07:08:17;99838.50;;;9.17;100.00
57068;BME280;43391;47.448;18.904;2024-02-28T07:10:42;99844.13;;;9.27;100.00
57068;BME280;43391;47.448;18.904;2024-02-28T07:13:08;99841.44;;;9.30;100.00
57068;BME280;43391;47.448;18.904;2024-02-28T07:15:33;99842.06;;;9.35;100.00
57068;BME280;43391;47.448;18.904;2024-02-28T07:17:59;99844.56;;;9.38;100.00
57068;BME280;43391;47.448;18.904;2024-02-28T07:20:24;99841.00;;;9.41;100.00
57068;BME280;43391;47.448;18.904;2024-02-28T07:22:49;99840.78;;;9.46;100.00
57068;BME280;43391;47.448;18.904;2024-02-28T07:25:14;99852.56;;;9.53;100.00
57068;BME280;43391;47.448;18.904;2024-02-28T07:27:40;99847.97;;;9.60;100.00
57068;BME280;43391;47.448;18.904;2024-02-28T07:30:05;99850.38;;;9.64;100.00
57068;BME280;43391;47.448;18.904;2024-02-28T07:32:31;99854.06;;;9.79;100.00
57068;BME280;43391;47.448;18.904;2024-02-28T07:35:00;99857.88;;;9.91;100.00
57068;BME280;43391;47.448;18.904;2024-02-28T07:37:25;99858.44;;;9.98;100.00
57068;BME280;43391;47.448;18.904;2024-02-28T07:39:50;99867.72;;;10.04;100.00
57068;BME280;43391;47.448;18.904;2024-02-28T07:42:15;99862.31;;;10.08;100.00
57068;BME280;43391;47.448;18.904;2024-02-28T07:44:40;99863.16;;;10.09;100.00
57068;BME280;43391;47.448;18.904;2024-02-28T07:47:06;99868.06;;;10.15;100.00
57068;BME280;43391;47.448;18.904;2024-02-28T07:49:31;99867.25;;;10.15;100.00
57068;BME280;43391;47.448;18.904;2024-02-28T07:51:56;99869.97;;;10.12;100.00
57068;BME280;43391;47.448;18.904;2024-02-28T07:54:22;99880.97;;;10.17;100.00
57068;BME280;43391;47.448;18.904;2024-02-28T07:56:47;99884.97;;;10.24;100.00
57068;BME280;43391;47.448;18.904;2024-02-28T07:59:12;99876.72;;;10.35;100.00
57068;BME280;43391;47.448;18.904;2024-02-28T08:01:37;99884.16;;;10.43;100.00
57068;BME280;43391;47.448;18.904;2024-02-28T08:04:04;99870.94;;;10.49;100.00
57068;BME280;43391;47.448;18.904;2024-02-28T08:06:29;99881.38;;;10.47;100.00
57068;BME280;43391;47.448;18.904;2024-02-28T08:08:56;99880.56;;;10.47;100.00
57068;BME280;43391;47.448;18.904;2024-02-28T08:11:21;99887.47;;;10.46;100.00
57068;BME280;43391;47.448;18.904;2024-02-28T08:13:46;99891.75;;;10.47;100.00
57068;BME280;43391;47.448;18.904;2024-02-28T08:16:12;99895.91;;;10.52;100.00
57068;BME280;43391;47.448;18.904;2024-02-28T08:18:37;99893.47;;;10.48;100.00
57068;BME280;43391;47.448;18.904;2024-02-28T08:21:02;99887.19;;;10.53;100.00
57068;BME280;43391;47.448;18.904;2024-02-28T08:23:29;99893.38;;;10.50;100.00
57068;BME280;43391;47.448;18.904;2024-02-28T08:25:54;99895.78;;;10.55;100.00
57068;BME280;43391;47.448;18.904;2024-02-28T08:28:19;99899.53;;;10.67;100.00
57068;BME280;43391;47.448;18.904;2024-02-28T08:30:44;99905.09;;;10.78;100.00
57068;BME280;43391;47.448;18.904;2024-02-28T08:33:10;99904.94;;;10.81;100.00
57068;BME280;43391;47.448;18.904;2024-02-28T08:35:35;99904.66;;;10.87;100.00
57068;BME280;43391;47.448;18.904;2024-02-28T08:38:00;99898.09;;;10.98;100.00
57068;BME280;43391;47.448;18.904;2024-02-28T08:40:27;99892.97;;;11.15;100.00
57068;BME280;43391;47.448;18.904;2024-02-28T08:42:52;99890.69;;;11.27;100.00
57068;BME280;43391;47.448;18.904;2024-02-28T08:45:19;99898.66;;;11.41;100.00
57068;BME280;43391;47.448;18.904;2024-02-28T08:47:44;99894.31;;;11.60;100.00
57068;BME280;43391;47.448;18.904;2024-02-28T08:50:09;99898.50;;;11.62;100.00
57068;BME280;43391;47.448;18.904;2024-02-28T08:52:35;99900.63;;;11.72;100.00
57068;BME280;43391;47.448;18.904;2024-02-28T08:55:00;99901.75;;;11.83;100.00
57068;BME280;43391;47.448;18.904;2024-02-28T08:57:25;99904.84;;;11.92;100.00
57068;BME280;43391;47.448;18.904;2024-02-28T08:59:50;99900.69;;;12.05;100.00
57068;BME280;43391;47.448;18.904;2024-02-28T09:02:16;99906.59;;;12.09;100.00
57068;BME280;43391;47.448;18.904;2024-02-28T09:04:41;99904.41;;;12.17;100.00
57068;BME280;43391;47.448;18.904;2024-02-28T09:07:07;99899.56;;;12.27;100.00
57068;BME280;43391;47.448;18.904;2024-02-28T09:09:32;99908.50;;;12.39;100.00
57068;BME280;43391;47.448;18.904;2024-02-28T09:12:02;99905.25;;;12.52;100.00
57068;BME280;43391;47.448;18.904;2024-02-28T09:14:28;99909.19;;;12.59;100.00
57068;BME280;43391;47.448;18.904;2024-02-28T09:16:53;99897.09;;;12.74;100.00
57068;BME280;43391;47.448;18.904;2024-02-28T09:19:21;99902.13;;;12.77;99.49
57068;BME280;43391;47.448;18.904;2024-02-28T09:21:46;99900.28;;;12.63;100.00
57068;BME280;43391;47.448;18.904;2024-02-28T09:24:13;99903.31;;;12.55;100.00
57068;BME280;43391;47.448;18.904;2024-02-28T09:26:38;99906.66;;;12.41;100.00
57068;BME280;43391;47.448;18.904;2024-02-28T09:29:04;99906.81;;;12.38;100.00
57068;BME280;43391;47.448;18.904;2024-02-28T09:31:29;99902.94;;;12.45;100.00
57068;BME280;43391;47.448;18.904;2024-02-28T09:33:54;99901.13;;;12.63;100.00
57068;BME280;43391;47.448;18.904;2024-02-28T09:36:20;99902.13;;;12.77;97.49
57068;BME280;43391;47.448;18.904;2024-02-28T09:38:45;99913.00;;;12.85;97.26
57068;BME280;43391;47.448;18.904;2024-02-28T09:41:14;99902.69;;;12.98;97.69
57068;BME280;43391;47.448;18.904;2024-02-28T09:43:42;99909.66;;;13.14;98.60
57068;BME280;43391;47.448;18.904;2024-02-28T09:46:08;99902.25;;;13.38;99.30
57068;BME280;43391;47.448;18.904;2024-02-28T09:48:36;99904.72;;;13.56;94.57
57068;BME280;43391;47.448;18.904;2024-02-28T09:51:03;99909.78;;;13.59;95.49
57068;BME280;43391;47.448;18.904;2024-02-28T09:53:28;99903.38;;;13.79;95.63
57068;BME280;43391;47.448;18.904;2024-02-28T09:55:54;99911.50;;;13.89;92.46
57068;BME280;43391;47.448;18.904;2024-02-28T09:58:19;99914.94;;;13.90;91.04
57068;BME280;43391;47.448;18.904;2024-02-28T10:00:47;99913.94;;;13.92;93.71
57068;BME280;43391;47.448;18.904;2024-02-28T10:03:13;99919.19;;;14.07;92.95
57068;BME280;43391;47.448;18.904;2024-02-28T10:05:39;99919.28;;;14.20;92.84
57068;BME280;43391;47.448;18.904;2024-02-28T10:08:05;99919.06;;;14.38;91.89
57068;BME280;43391;47.448;18.904;2024-02-28T10:10:30;99924.47;;;14.49;88.44
57068;BME280;43391;47.448;18.904;2024-02-28T10:12:56;99930.53;;;14.50;89.37
57068;BME280;43391;47.448;18.904;2024-02-28T10:15:21;99930.63;;;14.63;87.72
57068;BME280;43391;47.448;18.904;2024-02-28T10:17:47;99933.97;;;14.65;87.04
57068;BME280;43391;47.448;18.904;2024-02-28T10:20:12;99936.84;;;14.74;89.38
57068;BME280;43391;47.448;18.904;2024-02-28T10:22:37;99938.63;;;14.88;84.75
57068;BME280;43391;47.448;18.904;2024-02-28T10:25:03;99933.56;;;15.00;84.59
57068;BME280;43391;47.448;18.904;2024-02-28T10:27:31;99942.69;;;15.07;83.23
57068;BME280;43391;47.448;18.904;2024-02-28T10:29:56;99935.78;;;15.06;86.40
57068;BME280;43391;47.448;18.904;2024-02-28T10:32:21;99933.78;;;15.10;80.24
57068;BME280;43391;47.448;18.904;2024-02-28T10:34:47;99936.25;;;14.98;82.30
57068;BME280;43391;47.448;18.904;2024-02-28T10:37:13;99937.16;;;15.12;82.16
57068;BME280;43391;47.448;18.904;2024-02-28T10:39:38;99938.75;;;15.14;83.60
57068;BME280;43391;47.448;18.904;2024-02-28T10:42:03;99935.72;;;15.21;81.30
57068;BME280;43391;47.448;18.904;2024-02-28T10:44:29;99932.81;;;15.25;82.55
57068;BME280;43391;47.448;18.904;2024-02-28T10:46:55;99934.25;;;15.44;80.44
57068;BME280;43391;47.448;18.904;2024-02-28T10:49:21;99925.22;;;15.48;78.41
57068;BME280;43391;47.448;18.904;2024-02-28T10:51:48;99924.84;;;15.54;80.37
57068;BME280;43391;47.448;18.904;2024-02-28T10:54:14;99927.88;;;15.61;76.50
57068;BME280;43391;47.448;18.904;2024-02-28T10:56:40;99932.81;;;15.79;77.91
57068;BME280;43391;47.448;18.904;2024-02-28T10:59:06;99929.84;;;15.98;75.57
57068;BME280;43391;47.448;18.904;2024-02-28T11:01:33;99939.03;;;16.17;75.23
57068;BME280;43391;47.448;18.904;2024-02-28T11:03:59;99931.81;;;16.33;75.75
57068;BME280;43391;47.448;18.904;2024-02-28T11:06:24;99931.16;;;16.43;73.11
57068;BME280;43391;47.448;18.904;2024-02-28T11:08:51;99932.19;;;16.40;72.82
57068;BME280;43391;47.448;18.904;2024-02-28T11:11:21;99931.47;;;16.38;70.45
57068;BME280;43391;47.448;18.904;2024-02-28T11:13:53;99929.91;;;16.36;73.00
57068;BME280;43391;47.448;18.904;2024-02-28T11:16:25;99928.25;;;16.34;73.20
57068;BME280;43391;47.448;18.904;2024-02-28T11:18:51;99927.63;;;16.31;71.30
57068;BME280;43391;47.448;18.904;2024-02-28T11:21:16;99926.75;;;16.43;71.72
57068;BME280;43391;47.448;18.904;2024-02-28T11:23:41;99924.75;;;16.47;72.44
57068;BME280;43391;47.448;18.904;2024-02-28T11:26:11;99923.25;;;16.56;70.38
57068;BME280;43391;47.448;18.904;2024-02-28T11:28:37;99921.47;;;16.69;68.90
57068;BME280;43391;47.448;18.904;2024-02-28T11:31:02;99928.44;;;16.82;70.61
57068;BME280;43391;47.448;18.904;2024-02-28T11:33:27;99918.84;;;16.94;66.57
57068;BME280;43391;47.448;18.904;2024-02-28T11:35:56;99915.03;;;16.86;65.28
57068;BME280;43391;47.448;18.904;2024-02-28T11:38:23;99913.25;;;16.74;66.94
57068;BME280;43391;47.448;18.904;2024-02-28T11:40:49;99911.34;;;16.89;67.36
57068;BME280;43391;47.448;18.904;2024-02-28T11:43:15;99915.75;;;17.13;67.64
57068;BME280;43391;47.448;18.904;2024-02-28T11:45:40;99913.31;;;17.23;65.50
57068;BME280;43391;47.448;18.904;2024-02-28T11:48:06;99910.84;;;17.33;64.84
57068;BME280;43391;47.448;18.904;2024-02-28T11:50:32;99912.75;;;17.31;63.15
57068;BME280;43391;47.448;18.904;2024-02-28T11:52:57;99907.94;;;17.24;63.83
57068;BME280;43391;47.448;18.904;2024-02-28T11:55:24;99904.22;;;17.16;64.27
57068;BME280;43391;47.448;18.904;2024-02-28T11:57:49;99901.44;;;17.06;64.44
57068;BME280;43391;47.448;18.904;2024-02-28T12:00:16;99900.41;;;16.95;64.99
57068;BME280;43391;47.448;18.904;2024-02-28T12:02:41;99901.78;;;16.88;67.37
57068;BME280;43391;47.448;18.904;2024-02-28T12:05:06;99902.63;;;16.89;66.14
57068;BME280;43391;47.448;18.904;2024-02-28T12:07:32;99902.63;;;16.89;66.76
57068;BME280;43391;47.448;18.904;2024-02-28T12:09:57;99901.69;;;16.90;67.90
57068;BME280;43391;47.448;18.904;2024-02-28T12:12:23;99894.16;;;16.85;67.50
57068;BME280;43391;47.448;18.904;2024-02-28T12:14:48;99895.31;;;16.81;65.39
57068;BME280;43391;47.448;18.904;2024-02-28T12:17:14;99900.69;;;16.66;66.30
57068;BME280;43391;47.448;18.904;2024-02-28T12:19:39;99900.00;;;16.64;67.72
57068;BME280;43391;47.448;18.904;2024-02-28T12:22:04;99896.97;;;16.57;66.28
57068;BME280;43391;47.448;18.904;2024-02-28T12:24:30;99903.50;;;16.52;67.92
57068;BME280;43391;47.448;18.904;2024-02-28T12:26:55;99899.06;;;16.52;68.29
57068;BME280;43391;47.448;18.904;2024-02-28T12:29:20;99896.97;;;16.57;69.61
57068;BME280;43391;47.448;18.904;2024-02-28T12:31:46;99894.84;;;16.63;67.94
57068;BME280;43391;47.448;18.904;2024-02-28T12:34:11;99895.25;;;16.69;68.94
57068;BME280;43391;47.448;18.904;2024-02-28T12:36:36;99892.91;;;16.78;67.25
57068;BME280;43391;47.448;18.904;2024-02-28T12:39:02;99893.75;;;16.78;66.48
57068;BME280;43391;47.448;18.904;2024-02-28T12:41:27;99892.09;;;16.77;66.13